sensor_id;sensor_type;location;lat;lon;timestamp;P1;durP1;ratioP1;P2;durP2;ratioP2
4726;SDS011;2377;51.734;8.950;2023-06-26T00:01:45;5.90;;;5.40;;
4726;SDS011;2377;51.734;8.950;2023-06-26T00:04:15;5.67;;;4.50;;
4726;SDS011;2377;51.734;8.950;2023-06-26T00:06:43;5.33;;;4.83;;
4726;SDS011;2377;51.734;8.950;2023-06-26T00:09:13;6.47;;;5.57;;
4726;SDS011;2377;51.734;8.950;2023-06-26T00:11:40;5.73;;;5.23;;
4726;SDS011;2377;51.734;8.950;2023-06-26T00:14:07;7.43;;;5.70;;
4726;SDS011;2377;51.734;8.950;2023-06-26T00:16:35;5.70;;;5.20;;
4726;SDS011;2377;51.734;8.950;2023-06-26T00:19:02;10.13;;;5.63;;
4726;SDS011;2377;51.734;8.950;2023-06-26T00:21:29;6.20;;;5.60;;
4726;SDS011;2377;51.734;8.950;2023-06-26T00:23:57;5.20;;;4.70;;
4726;SDS011;2377;51.734;8.950;2023-06-26T00:26:24;5.93;;;5.33;;
4726;SDS011;2377;51.734;8.950;2023-06-26T00:28:51;4.80;;;4.30;;
4726;SDS011;2377;51.734;8.950;2023-06-26T00:31:18;6.63;;;5.17;;
4726;SDS011;2377;51.734;8.950;2023-06-26T00:33:46;6.53;;;4.73;;
4726;SDS011;2377;51.734;8.950;2023-06-26T00:36:13;6.07;;;5.47;;
4726;SDS011;2377;51.734;8.950;2023-06-26T00:38:40;5.57;;;5.00;;
4726;SDS011;2377;51.734;8.950;2023-06-26T00:41:07;6.13;;;5.40;;
4726;SDS011;2377;51.734;8.950;2023-06-26T00:43:37;5.90;;;5.10;;
4726;SDS011;2377;51.734;8.950;2023-06-26T00:46:05;5.77;;;5.17;;
4726;SDS011;2377;51.734;8.950;2023-06-26T00:48:37;7.20;;;5.13;;
4726;SDS011;2377;51.734;8.950;2023-06-26T00:51:08;5.50;;;5.00;;
4726;SDS011;2377;51.734;8.950;2023-06-26T00:53:36;5.77;;;5.27;;
4726;SDS011;2377;51.734;8.950;2023-06-26T00:56:03;6.07;;;5.47;;
4726;SDS011;2377;51.734;8.950;2023-06-26T00:58:33;5.40;;;4.97;;
4726;SDS011;2377;51.734;8.950;2023-06-26T01:01:00;6.07;;;5.47;;
4726;SDS011;2377;51.734;8.950;2023-06-26T01:03:28;6.00;;;5.40;;
4726;SDS011;2377;51.734;8.950;2023-06-26T01:05:56;5.33;;;4.83;;
4726;SDS011;2377;51.734;8.950;2023-06-26T01:08:26;5.73;;;5.20;;
4726;SDS011;2377;51.734;8.950;2023-06-26T01:10:55;5.10;;;4.60;;
4726;SDS011;2377;51.734;8.950;2023-06-26T01:13:22;5.90;;;5.23;;
4726;SDS011;2377;51.734;8.950;2023-06-26T01:15:50;5.20;;;4.80;;
4726;SDS011;2377;51.734;8.950;2023-06-26T01:18:19;7.83;;;5.20;;
4726;SDS011;2377;51.734;8.950;2023-06-26T01:20:47;6.20;;;5.00;;
4726;SDS011;2377;51.734;8.950;2023-06-26T01:23:16;5.80;;;5.20;;
4726;SDS011;2377;51.734;8.950;2023-06-26T01:25:54;6.03;;;5.33;;
4726;SDS011;2377;51.734;8.950;2023-06-26T01:28:41;6.17;;;5.57;;
4726;SDS011;2377;51.734;8.950;2023-06-26T01:31:09;5.73;;;5.13;;
4726;SDS011;2377;51.734;8.950;2023-06-26T01:33:37;5.03;;;4.57;;
4726;SDS011;2377;51.734;8.950;2023-06-26T01:36:06;5.90;;;5.30;;
4726;SDS011;2377;51.734;8.950;2023-06-26T01:38:34;7.07;;;5.27;;
4726;SDS011;2377;51.734;8.950;2023-06-26T01:41:01;5.30;;;4.77;;
4726;SDS011;2377;51.734;8.950;2023-06-26T01:43:35;6.47;;;5.33;;
4726;SDS011;2377;51.734;8.950;2023-06-26T01:46:16;5.83;;;5.20;;
4726;SDS011;2377;51.734;8.950;2023-06-26T01:48:53;5.30;;;4.80;;
4726;SDS011;2377;51.734;8.950;2023-06-26T01:51:30;6.13;;;5.53;;
4726;SDS011;2377;51.734;8.950;2023-06-26T01:54:05;5.97;;;5.37;;
4726;SDS011;2377;51.734;8.950;2023-06-26T01:56:41;5.93;;;5.23;;
4726;SDS011;2377;51.734;8.950;2023-06-26T01:59:12;5.80;;;5.10;;
4726;SDS011;2377;51.734;8.950;2023-06-26T02:01:40;7.13;;;5.20;;
4726;SDS011;2377;51.734;8.950;2023-06-26T02:04:07;6.93;;;5.60;;
4726;SDS011;2377;51.734;8.950;2023-06-26T02:06:34;6.20;;;5.60;;
4726;SDS011;2377;51.734;8.950;2023-06-26T02:09:02;5.73;;;5.13;;
4726;SDS011;2377;51.734;8.950;2023-06-26T02:11:29;6.10;;;5.43;;
4726;SDS011;2377;51.734;8.950;2023-06-26T02:13:57;7.77;;;6.27;;
4726;SDS011;2377;51.734;8.950;2023-06-26T02:16:24;7.20;;;5.63;;
4726;SDS011;2377;51.734;8.950;2023-06-26T02:18:51;6.27;;;5.67;;
4726;SDS011;2377;51.734;8.950;2023-06-26T02:21:18;8.63;;;5.50;;
4726;SDS011;2377;51.734;8.950;2023-06-26T02:23:45;6.30;;;5.40;;
4726;SDS011;2377;51.734;8.950;2023-06-26T02:26:12;8.60;;;5.37;;
4726;SDS011;2377;51.734;8.950;2023-06-26T02:28:39;6.20;;;5.60;;
4726;SDS011;2377;51.734;8.950;2023-06-26T02:31:08;6.27;;;5.67;;
4726;SDS011;2377;51.734;8.950;2023-06-26T02:33:35;6.53;;;5.93;;
4726;SDS011;2377;51.734;8.950;2023-06-26T02:36:02;6.37;;;5.77;;
4726;SDS011;2377;51.734;8.950;2023-06-26T02:38:30;6.00;;;5.40;;
4726;SDS011;2377;51.734;8.950;2023-06-26T02:40:57;7.20;;;5.70;;
4726;SDS011;2377;51.734;8.950;2023-06-26T02:43:24;6.40;;;5.70;;
4726;SDS011;2377;51.734;8.950;2023-06-26T02:45:51;5.53;;;4.93;;
4726;SDS011;2377;51.734;8.950;2023-06-26T02:48:19;6.43;;;5.60;;
4726;SDS011;2377;51.734;8.950;2023-06-26T02:50:47;7.13;;;5.70;;
4726;SDS011;2377;51.734;8.950;2023-06-26T02:53:14;5.93;;;5.33;;
4726;SDS011;2377;51.734;8.950;2023-06-26T02:55:41;5.97;;;5.40;;
4726;SDS011;2377;51.734;8.950;2023-06-26T02:58:08;6.20;;;5.60;;
4726;SDS011;2377;51.734;8.950;2023-06-26T03:00:35;6.37;;;5.37;;
4726;SDS011;2377;51.734;8.950;2023-06-26T03:03:06;5.63;;;5.10;;
4726;SDS011;2377;51.734;8.950;2023-06-26T03:05:34;6.57;;;5.13;;
4726;SDS011;2377;51.734;8.950;2023-06-26T03:08:02;6.37;;;5.77;;
4726;SDS011;2377;51.734;8.950;2023-06-26T03:10:29;6.17;;;5.57;;
4726;SDS011;2377;51.734;8.950;2023-06-26T03:12:56;6.37;;;5.73;;
4726;SDS011;2377;51.734;8.950;2023-06-26T03:15:23;6.43;;;5.83;;
4726;SDS011;2377;51.734;8.950;2023-06-26T03:17:50;6.70;;;5.40;;
4726;SDS011;2377;51.734;8.950;2023-06-26T03:20:17;6.33;;;5.60;;
4726;SDS011;2377;51.734;8.950;2023-06-26T03:22:46;6.17;;;5.57;;
4726;SDS011;2377;51.734;8.950;2023-06-26T03:25:13;6.43;;;5.83;;
4726;SDS011;2377;51.734;8.950;2023-06-26T03:27:40;6.20;;;5.60;;
4726;SDS011;2377;51.734;8.950;2023-06-26T03:30:08;6.20;;;5.60;;
4726;SDS011;2377;51.734;8.950;2023-06-26T03:32:36;5.60;;;5.10;;
4726;SDS011;2377;51.734;8.950;2023-06-26T03:35:03;7.03;;;6.20;;
4726;SDS011;2377;51.734;8.950;2023-06-26T03:37:31;6.27;;;5.60;;
4726;SDS011;2377;51.734;8.950;2023-06-26T03:40:00;6.33;;;5.70;;
4726;SDS011;2377;51.734;8.950;2023-06-26T03:42:32;6.20;;;4.87;;
4726;SDS011;2377;51.734;8.950;2023-06-26T03:44:59;7.33;;;6.17;;
4726;SDS011;2377;51.734;8.950;2023-06-26T03:47:26;7.20;;;5.73;;
4726;SDS011;2377;51.734;8.950;2023-06-26T03:49:53;6.40;;;5.80;;
4726;SDS011;2377;51.734;8.950;2023-06-26T03:52:20;6.70;;;5.30;;
4726;SDS011;2377;51.734;8.950;2023-06-26T03:54:50;6.37;;;5.77;;
4726;SDS011;2377;51.734;8.950;2023-06-26T03:57:18;5.37;;;4.87;;
4726;SDS011;2377;51.734;8.950;2023-06-26T03:59:45;6.43;;;5.80;;
4726;SDS011;2377;51.734;8.950;2023-06-26T04:02:12;6.87;;;5.80;;
4726;SDS011;2377;51.734;8.950;2023-06-26T04:04:39;6.20;;;5.60;;
4726;SDS011;2377;51.734;8.950;2023-06-26T04:07:09;6.10;;;5.50;;
4726;SDS011;2377;51.734;8.950;2023-06-26T04:09:36;7.57;;;6.10;;
4726;SDS011;2377;51.734;8.950;2023-06-26T04:12:04;6.53;;;5.50;;
4726;SDS011;2377;51.734;8.950;2023-06-26T04:14:34;5.87;;;5.37;;
4726;SDS011;2377;51.734;8.950;2023-06-26T04:17:01;8.73;;;5.80;;
4726;SDS011;2377;51.734;8.950;2023-06-26T04:19:28;6.00;;;5.47;;
4726;SDS011;2377;51.734;8.950;2023-06-26T04:21:55;5.27;;;4.77;;
4726;SDS011;2377;51.734;8.950;2023-06-26T04:24:23;6.60;;;5.93;;
4726;SDS011;2377;51.734;8.950;2023-06-26T04:26:50;5.50;;;5.00;;
4726;SDS011;2377;51.734;8.950;2023-06-26T04:29:17;8.83;;;5.67;;
4726;SDS011;2377;51.734;8.950;2023-06-26T04:31:46;6.87;;;5.70;;
4726;SDS011;2377;51.734;8.950;2023-06-26T04:34:13;5.23;;;4.70;;
4726;SDS011;2377;51.734;8.950;2023-06-26T04:36:40;5.50;;;5.00;;
4726;SDS011;2377;51.734;8.950;2023-06-26T04:39:11;6.00;;;5.03;;
4726;SDS011;2377;51.734;8.950;2023-06-26T04:41:39;6.37;;;5.73;;
4726;SDS011;2377;51.734;8.950;2023-06-26T04:44:06;6.13;;;5.37;;
4726;SDS011;2377;51.734;8.950;2023-06-26T04:46:33;8.63;;;6.00;;
4726;SDS011;2377;51.734;8.950;2023-06-26T04:49:02;5.57;;;5.03;;
4726;SDS011;2377;51.734;8.950;2023-06-26T04:51:29;6.57;;;5.90;;
4726;SDS011;2377;51.734;8.950;2023-06-26T04:53:56;7.70;;;6.40;;
4726;SDS011;2377;51.734;8.950;2023-06-26T04:56:23;7.63;;;5.23;;
4726;SDS011;2377;51.734;8.950;2023-06-26T04:58:50;8.13;;;7.17;;
4726;SDS011;2377;51.734;8.950;2023-06-26T05:01:17;8.90;;;6.43;;
4726;SDS011;2377;51.734;8.950;2023-06-26T05:03:44;7.00;;;5.93;;
4726;SDS011;2377;51.734;8.950;2023-06-26T05:06:14;6.80;;;5.30;;
4726;SDS011;2377;51.734;8.950;2023-06-26T05:08:41;7.00;;;6.00;;
4726;SDS011;2377;51.734;8.950;2023-06-26T05:11:08;6.50;;;5.77;;
4726;SDS011;2377;51.734;8.950;2023-06-26T05:13:35;7.43;;;6.00;;
4726;SDS011;2377;51.734;8.950;2023-06-26T05:16:02;7.60;;;5.73;;
4726;SDS011;2377;51.734;8.950;2023-06-26T05:18:34;6.60;;;5.90;;
4726;SDS011;2377;51.734;8.950;2023-06-26T05:21:01;6.10;;;5.47;;
4726;SDS011;2377;51.734;8.950;2023-06-26T05:23:31;6.60;;;5.90;;
4726;SDS011;2377;51.734;8.950;2023-06-26T05:26:00;7.83;;;6.07;;
4726;SDS011;2377;51.734;8.950;2023-06-26T05:28:28;6.60;;;6.00;;
4726;SDS011;2377;51.734;8.950;2023-06-26T05:30:57;5.67;;;5.17;;
4726;SDS011;2377;51.734;8.950;2023-06-26T05:33:25;6.83;;;5.90;;
4726;SDS011;2377;51.734;8.950;2023-06-26T05:35:54;7.17;;;5.60;;
4726;SDS011;2377;51.734;8.950;2023-06-26T05:38:24;5.90;;;5.30;;
4726;SDS011;2377;51.734;8.950;2023-06-26T05:40:54;7.60;;;6.33;;
4726;SDS011;2377;51.734;8.950;2023-06-26T05:43:22;7.00;;;6.30;;
4726;SDS011;2377;51.734;8.950;2023-06-26T05:45:50;6.83;;;5.60;;
4726;SDS011;2377;51.734;8.950;2023-06-26T05:48:17;6.80;;;6.00;;
4726;SDS011;2377;51.734;8.950;2023-06-26T05:50:44;7.97;;;6.00;;
4726;SDS011;2377;51.734;8.950;2023-06-26T05:53:12;6.03;;;5.43;;
4726;SDS011;2377;51.734;8.950;2023-06-26T05:55:40;7.20;;;6.30;;
4726;SDS011;2377;51.734;8.950;2023-06-26T05:58:10;6.83;;;6.20;;
4726;SDS011;2377;51.734;8.950;2023-06-26T06:00:38;6.90;;;6.20;;
4726;SDS011;2377;51.734;8.950;2023-06-26T06:03:06;8.67;;;6.60;;
4726;SDS011;2377;51.734;8.950;2023-06-26T06:05:34;9.90;;;6.70;;
4726;SDS011;2377;51.734;8.950;2023-06-26T06:08:02;7.50;;;6.60;;
4726;SDS011;2377;51.734;8.950;2023-06-26T06:10:30;10.00;;;5.73;;
4726;SDS011;2377;51.734;8.950;2023-06-26T06:12:57;6.67;;;5.97;;
4726;SDS011;2377;51.734;8.950;2023-06-26T06:15:25;6.53;;;5.87;;
4726;SDS011;2377;51.734;8.950;2023-06-26T06:17:53;6.83;;;6.13;;
4726;SDS011;2377;51.734;8.950;2023-06-26T06:20:20;6.73;;;6.03;;
4726;SDS011;2377;51.734;8.950;2023-06-26T06:22:47;6.00;;;5.40;;
4726;SDS011;2377;51.734;8.950;2023-06-26T06:25:14;7.57;;;6.10;;
4726;SDS011;2377;51.734;8.950;2023-06-26T06:27:41;8.23;;;6.27;;
4726;SDS011;2377;51.734;8.950;2023-06-26T06:30:09;6.60;;;5.83;;
4726;SDS011;2377;51.734;8.950;2023-06-26T06:32:39;7.80;;;6.17;;
4726;SDS011;2377;51.734;8.950;2023-06-26T06:35:06;6.20;;;5.50;;
4726;SDS011;2377;51.734;8.950;2023-06-26T06:37:35;6.60;;;5.97;;
4726;SDS011;2377;51.734;8.950;2023-06-26T06:40:03;10.53;;;6.40;;
4726;SDS011;2377;51.734;8.950;2023-06-26T06:42:32;7.93;;;5.50;;
4726;SDS011;2377;51.734;8.950;2023-06-26T06:44:59;8.37;;;6.03;;
4726;SDS011;2377;51.734;8.950;2023-06-26T06:47:27;6.47;;;5.77;;
4726;SDS011;2377;51.734;8.950;2023-06-26T06:49:55;8.03;;;5.53;;
4726;SDS011;2377;51.734;8.950;2023-06-26T06:52:23;6.20;;;5.60;;
4726;SDS011;2377;51.734;8.950;2023-06-26T06:54:51;8.00;;;6.10;;
4726;SDS011;2377;51.734;8.950;2023-06-26T06:57:19;8.07;;;6.47;;
4726;SDS011;2377;51.734;8.950;2023-06-26T06:59:47;6.27;;;5.57;;
4726;SDS011;2377;51.734;8.950;2023-06-26T07:02:14;6.57;;;5.73;;
4726;SDS011;2377;51.734;8.950;2023-06-26T07:04:43;6.67;;;5.93;;
4726;SDS011;2377;51.734;8.950;2023-06-26T07:07:12;8.43;;;6.80;;
4726;SDS011;2377;51.734;8.950;2023-06-26T07:09:48;6.80;;;6.07;;
4726;SDS011;2377;51.734;8.950;2023-06-26T07:12:15;8.13;;;6.73;;
4726;SDS011;2377;51.734;8.950;2023-06-26T07:14:42;8.87;;;6.80;;
4726;SDS011;2377;51.734;8.950;2023-06-26T07:17:09;9.60;;;6.30;;
4726;SDS011;2377;51.734;8.950;2023-06-26T07:19:36;8.10;;;6.67;;
4726;SDS011;2377;51.734;8.950;2023-06-26T07:22:03;9.80;;;6.93;;
4726;SDS011;2377;51.734;8.950;2023-06-26T07:24:32;9.43;;;7.40;;
4726;SDS011;2377;51.734;8.950;2023-06-26T07:26:59;7.40;;;6.60;;
4726;SDS011;2377;51.734;8.950;2023-06-26T07:29:26;12.20;;;7.87;;
4726;SDS011;2377;51.734;8.950;2023-06-26T07:31:53;8.80;;;7.60;;
4726;SDS011;2377;51.734;8.950;2023-06-26T07:34:21;20.30;;;8.37;;
4726;SDS011;2377;51.734;8.950;2023-06-26T07:36:48;9.47;;;8.03;;
4726;SDS011;2377;51.734;8.950;2023-06-26T07:39:15;7.73;;;6.50;;
4726;SDS011;2377;51.734;8.950;2023-06-26T07:41:43;9.93;;;7.80;;
4726;SDS011;2377;51.734;8.950;2023-06-26T07:44:10;9.20;;;6.47;;
4726;SDS011;2377;51.734;8.950;2023-06-26T07:46:37;9.83;;;6.53;;
4726;SDS011;2377;51.734;8.950;2023-06-26T07:49:05;10.37;;;6.93;;
4726;SDS011;2377;51.734;8.950;2023-06-26T07:51:32;7.23;;;6.23;;
4726;SDS011;2377;51.734;8.950;2023-06-26T07:54:06;12.17;;;5.50;;
4726;SDS011;2377;51.734;8.950;2023-06-26T07:56:58;7.13;;;6.40;;
4726;SDS011;2377;51.734;8.950;2023-06-26T07:59:28;8.90;;;7.13;;
4726;SDS011;2377;51.734;8.950;2023-06-26T08:01:56;8.67;;;7.17;;
4726;SDS011;2377;51.734;8.950;2023-06-26T08:04:24;8.20;;;6.40;;
4726;SDS011;2377;51.734;8.950;2023-06-26T08:06:55;17.73;;;8.27;;
4726;SDS011;2377;51.734;8.950;2023-06-26T08:09:25;7.77;;;6.93;;
4726;SDS011;2377;51.734;8.950;2023-06-26T08:11:54;12.00;;;7.03;;
4726;SDS011;2377;51.734;8.950;2023-06-26T08:14:24;8.40;;;7.57;;
4726;SDS011;2377;51.734;8.950;2023-06-26T08:16:51;8.60;;;7.27;;
4726;SDS011;2377;51.734;8.950;2023-06-26T08:19:19;10.00;;;7.90;;
4726;SDS011;2377;51.734;8.950;2023-06-26T08:21:46;12.10;;;8.50;;
4726;SDS011;2377;51.734;8.950;2023-06-26T08:24:13;11.30;;;7.23;;
4726;SDS011;2377;51.734;8.950;2023-06-26T08:26:44;10.27;;;8.23;;
4726;SDS011;2377;51.734;8.950;2023-06-26T08:29:13;14.93;;;8.23;;
4726;SDS011;2377;51.734;8.950;2023-06-26T08:31:41;11.20;;;7.50;;
4726;SDS011;2377;51.734;8.950;2023-06-26T08:34:09;11.83;;;8.30;;
4726;SDS011;2377;51.734;8.950;2023-06-26T08:36:37;12.50;;;9.17;;
4726;SDS011;2377;51.734;8.950;2023-06-26T08:39:04;11.27;;;8.40;;
4726;SDS011;2377;51.734;8.950;2023-06-26T08:41:33;9.40;;;7.67;;
4726;SDS011;2377;51.734;8.950;2023-06-26T08:44:01;11.40;;;9.00;;
4726;SDS011;2377;51.734;8.950;2023-06-26T08:46:30;13.53;;;8.77;;
4726;SDS011;2377;51.734;8.950;2023-06-26T08:49:01;12.17;;;8.90;;
4726;SDS011;2377;51.734;8.950;2023-06-26T08:51:40;14.00;;;10.00;;
4726;SDS011;2377;51.734;8.950;2023-06-26T08:54:16;11.43;;;9.40;;
4726;SDS011;2377;51.734;8.950;2023-06-26T08:56:53;13.40;;;9.13;;
4726;SDS011;2377;51.734;8.950;2023-06-26T08:59:23;13.07;;;9.83;;
4726;SDS011;2377;51.734;8.950;2023-06-26T09:01:52;12.13;;;9.40;;
4726;SDS011;2377;51.734;8.950;2023-06-26T09:04:19;12.50;;;9.60;;
4726;SDS011;2377;51.734;8.950;2023-06-26T09:06:47;13.07;;;9.50;;
4726;SDS011;2377;51.734;8.950;2023-06-26T09:09:14;16.27;;;11.07;;
4726;SDS011;2377;51.734;8.950;2023-06-26T09:11:41;13.03;;;9.40;;
4726;SDS011;2377;51.734;8.950;2023-06-26T09:14:08;14.97;;;9.63;;
4726;SDS011;2377;51.734;8.950;2023-06-26T09:16:39;12.70;;;8.93;;
4726;SDS011;2377;51.734;8.950;2023-06-26T09:19:10;12.57;;;9.60;;
4726;SDS011;2377;51.734;8.950;2023-06-26T09:21:38;12.17;;;9.40;;
4726;SDS011;2377;51.734;8.950;2023-06-26T09:24:06;12.77;;;9.40;;
4726;SDS011;2377;51.734;8.950;2023-06-26T09:26:35;21.70;;;9.80;;
4726;SDS011;2377;51.734;8.950;2023-06-26T09:29:04;15.37;;;9.63;;
4726;SDS011;2377;51.734;8.950;2023-06-26T09:31:32;17.73;;;11.30;;
4726;SDS011;2377;51.734;8.950;2023-06-26T09:34:01;16.90;;;12.20;;
4726;SDS011;2377;51.734;8.950;2023-06-26T09:36:30;22.30;;;10.37;;
4726;SDS011;2377;51.734;8.950;2023-06-26T09:39:00;18.73;;;13.13;;
4726;SDS011;2377;51.734;8.950;2023-06-26T09:41:29;17.03;;;9.87;;
4726;SDS011;2377;51.734;8.950;2023-06-26T09:43:58;16.20;;;10.63;;
4726;SDS011;2377;51.734;8.950;2023-06-26T09:46:29;17.20;;;10.90;;
4726;SDS011;2377;51.734;8.950;2023-06-26T09:48:57;12.97;;;9.60;;
4726;SDS011;2377;51.734;8.950;2023-06-26T09:51:30;16.20;;;11.47;;
4726;SDS011;2377;51.734;8.950;2023-06-26T09:53:58;13.97;;;10.73;;
4726;SDS011;2377;51.734;8.950;2023-06-26T09:56:25;18.10;;;10.63;;
4726;SDS011;2377;51.734;8.950;2023-06-26T09:58:55;18.23;;;10.57;;
4726;SDS011;2377;51.734;8.950;2023-06-26T10:01:23;19.07;;;11.97;;
4726;SDS011;2377;51.734;8.950;2023-06-26T10:03:50;17.83;;;11.53;;
4726;SDS011;2377;51.734;8.950;2023-06-26T10:06:18;17.10;;;12.90;;
4726;SDS011;2377;51.734;8.950;2023-06-26T10:08:54;16.07;;;11.67;;
4726;SDS011;2377;51.734;8.950;2023-06-26T10:11:24;15.77;;;12.20;;
4726;SDS011;2377;51.734;8.950;2023-06-26T10:13:57;21.10;;;13.30;;
4726;SDS011;2377;51.734;8.950;2023-06-26T10:16:26;15.93;;;9.67;;
4726;SDS011;2377;51.734;8.950;2023-06-26T10:18:58;14.13;;;11.10;;
4726;SDS011;2377;51.734;8.950;2023-06-26T10:21:31;14.60;;;10.80;;
4726;SDS011;2377;51.734;8.950;2023-06-26T10:24:02;14.03;;;10.83;;
4726;SDS011;2377;51.734;8.950;2023-06-26T10:26:33;13.73;;;10.87;;
4726;SDS011;2377;51.734;8.950;2023-06-26T10:29:04;16.47;;;11.27;;
4726;SDS011;2377;51.734;8.950;2023-06-26T10:31:33;14.90;;;9.27;;
4726;SDS011;2377;51.734;8.950;2023-06-26T10:34:03;13.70;;;9.90;;
4726;SDS011;2377;51.734;8.950;2023-06-26T10:36:32;15.87;;;10.93;;
4726;SDS011;2377;51.734;8.950;2023-06-26T10:39:03;10.07;;;8.37;;
4726;SDS011;2377;51.734;8.950;2023-06-26T10:41:36;13.67;;;9.70;;
4726;SDS011;2377;51.734;8.950;2023-06-26T10:44:08;13.73;;;9.97;;
4726;SDS011;2377;51.734;8.950;2023-06-26T10:49:24;9.77;;;8.13;;
4726;SDS011;2377;51.734;8.950;2023-06-26T10:51:54;10.77;;;8.07;;
4726;SDS011;2377;51.734;8.950;2023-06-26T10:54:27;9.20;;;6.57;;
4726;SDS011;2377;51.734;8.950;2023-06-26T10:56:56;12.97;;;7.70;;
4726;SDS011;2377;51.734;8.950;2023-06-26T10:59:24;11.57;;;7.73;;
4726;SDS011;2377;51.734;8.950;2023-06-26T11:01:54;17.50;;;9.10;;
4726;SDS011;2377;51.734;8.950;2023-06-26T11:07:16;13.83;;;7.63;;
4726;SDS011;2377;51.734;8.950;2023-06-26T11:09:57;25.23;;;8.40;;
4726;SDS011;2377;51.734;8.950;2023-06-26T11:12:36;11.50;;;8.23;;
4726;SDS011;2377;51.734;8.950;2023-06-26T11:15:07;10.20;;;6.90;;
4726;SDS011;2377;51.734;8.950;2023-06-26T11:17:35;12.83;;;6.90;;
4726;SDS011;2377;51.734;8.950;2023-06-26T11:20:04;10.17;;;6.60;;
4726;SDS011;2377;51.734;8.950;2023-06-26T11:22:34;10.30;;;7.03;;
4726;SDS011;2377;51.734;8.950;2023-06-26T11:25:05;15.07;;;7.87;;
4726;SDS011;2377;51.734;8.950;2023-06-26T11:27:37;10.50;;;6.00;;
4726;SDS011;2377;51.734;8.950;2023-06-26T11:30:06;12.87;;;5.73;;
4726;SDS011;2377;51.734;8.950;2023-06-26T11:32:35;10.43;;;5.97;;
4726;SDS011;2377;51.734;8.950;2023-06-26T11:35:03;7.90;;;5.40;;
4726;SDS011;2377;51.734;8.950;2023-06-26T11:37:31;9.30;;;6.57;;
4726;SDS011;2377;51.734;8.950;2023-06-26T11:39:59;5.67;;;4.63;;
4726;SDS011;2377;51.734;8.950;2023-06-26T11:42:27;9.50;;;6.20;;
4726;SDS011;2377;51.734;8.950;2023-06-26T11:44:55;10.20;;;6.90;;
4726;SDS011;2377;51.734;8.950;2023-06-26T11:47:22;11.73;;;6.73;;
4726;SDS011;2377;51.734;8.950;2023-06-26T11:49:51;11.30;;;6.87;;
4726;SDS011;2377;51.734;8.950;2023-06-26T11:52:18;12.20;;;7.10;;
4726;SDS011;2377;51.734;8.950;2023-06-26T11:54:45;10.33;;;6.63;;
4726;SDS011;2377;51.734;8.950;2023-06-26T11:57:14;11.60;;;5.57;;
4726;SDS011;2377;51.734;8.950;2023-06-26T11:59:45;15.47;;;5.90;;
4726;SDS011;2377;51.734;8.950;2023-06-26T12:02:16;8.70;;;5.30;;
4726;SDS011;2377;51.734;8.950;2023-06-26T12:04:43;10.47;;;5.53;;
4726;SDS011;2377;51.734;8.950;2023-06-26T12:07:11;6.23;;;5.20;;
4726;SDS011;2377;51.734;8.950;2023-06-26T12:09:41;12.87;;;5.90;;
4726;SDS011;2377;51.734;8.950;2023-06-26T12:12:10;10.67;;;5.87;;
4726;SDS011;2377;51.734;8.950;2023-06-26T12:14:39;8.33;;;5.37;;
4726;SDS011;2377;51.734;8.950;2023-06-26T12:17:09;8.07;;;5.23;;
4726;SDS011;2377;51.734;8.950;2023-06-26T12:19:38;13.30;;;5.37;;
4726;SDS011;2377;51.734;8.950;2023-06-26T12:22:14;7.70;;;4.57;;
4726;SDS011;2377;51.734;8.950;2023-06-26T12:24:43;9.53;;;6.00;;
4726;SDS011;2377;51.734;8.950;2023-06-26T12:27:13;15.60;;;5.53;;
4726;SDS011;2377;51.734;8.950;2023-06-26T12:29:45;12.67;;;5.80;;
4726;SDS011;2377;51.734;8.950;2023-06-26T12:32:18;6.20;;;4.70;;
4726;SDS011;2377;51.734;8.950;2023-06-26T12:34:47;9.27;;;4.80;;
4726;SDS011;2377;51.734;8.950;2023-06-26T12:37:16;11.63;;;5.00;;
4726;SDS011;2377;51.734;8.950;2023-06-26T12:39:47;12.07;;;4.77;;
4726;SDS011;2377;51.734;8.950;2023-06-26T12:42:17;10.00;;;4.70;;
4726;SDS011;2377;51.734;8.950;2023-06-26T12:44:46;11.77;;;4.33;;
4726;SDS011;2377;51.734;8.950;2023-06-26T12:47:14;6.53;;;3.93;;
4726;SDS011;2377;51.734;8.950;2023-06-26T12:49:44;7.03;;;3.80;;
4726;SDS011;2377;51.734;8.950;2023-06-26T12:52:16;9.00;;;4.50;;
4726;SDS011;2377;51.734;8.950;2023-06-26T12:54:44;11.70;;;4.53;;
4726;SDS011;2377;51.734;8.950;2023-06-26T12:57:13;8.60;;;4.20;;
4726;SDS011;2377;51.734;8.950;2023-06-26T12:59:40;9.13;;;4.10;;
4726;SDS011;2377;51.734;8.950;2023-06-26T13:02:07;7.33;;;3.50;;
4726;SDS011;2377;51.734;8.950;2023-06-26T13:04:36;5.27;;;3.60;;
4726;SDS011;2377;51.734;8.950;2023-06-26T13:07:06;6.50;;;4.00;;
4726;SDS011;2377;51.734;8.950;2023-06-26T13:09:34;4.40;;;3.27;;
4726;SDS011;2377;51.734;8.950;2023-06-26T13:12:02;6.43;;;3.70;;
4726;SDS011;2377;51.734;8.950;2023-06-26T13:14:31;5.87;;;3.33;;
4726;SDS011;2377;51.734;8.950;2023-06-26T13:16:59;4.53;;;3.30;;
4726;SDS011;2377;51.734;8.950;2023-06-26T13:19:27;6.53;;;3.90;;
4726;SDS011;2377;51.734;8.950;2023-06-26T13:21:54;6.60;;;3.30;;
4726;SDS011;2377;51.734;8.950;2023-06-26T13:24:35;5.07;;;3.10;;
4726;SDS011;2377;51.734;8.950;2023-06-26T13:27:06;5.23;;;3.10;;
4726;SDS011;2377;51.734;8.950;2023-06-26T13:29:40;5.23;;;3.23;;
4726;SDS011;2377;51.734;8.950;2023-06-26T13:32:16;5.83;;;3.50;;
4726;SDS011;2377;51.734;8.950;2023-06-26T13:34:48;5.90;;;3.97;;
4726;SDS011;2377;51.734;8.950;2023-06-26T13:37:20;5.33;;;3.00;;
4726;SDS011;2377;51.734;8.950;2023-06-26T13:39:50;11.13;;;4.20;;
4726;SDS011;2377;51.734;8.950;2023-06-26T13:42:30;5.77;;;3.50;;
4726;SDS011;2377;51.734;8.950;2023-06-26T13:45:05;5.07;;;3.40;;
4726;SDS011;2377;51.734;8.950;2023-06-26T13:47:44;6.17;;;3.23;;
4726;SDS011;2377;51.734;8.950;2023-06-26T13:50:19;4.17;;;3.30;;
4726;SDS011;2377;51.734;8.950;2023-06-26T13:52:48;8.50;;;3.13;;
4726;SDS011;2377;51.734;8.950;2023-06-26T13:55:16;6.50;;;3.33;;
4726;SDS011;2377;51.734;8.950;2023-06-26T13:57:44;4.90;;;3.70;;
4726;SDS011;2377;51.734;8.950;2023-06-26T14:00:12;5.83;;;3.07;;
4726;SDS011;2377;51.734;8.950;2023-06-26T14:02:44;6.63;;;2.90;;
4726;SDS011;2377;51.734;8.950;2023-06-26T14:05:11;7.03;;;3.60;;
4726;SDS011;2377;51.734;8.950;2023-06-26T14:07:39;5.30;;;3.40;;
4726;SDS011;2377;51.734;8.950;2023-06-26T14:10:10;5.40;;;3.00;;
4726;SDS011;2377;51.734;8.950;2023-06-26T14:12:37;4.10;;;3.17;;
4726;SDS011;2377;51.734;8.950;2023-06-26T14:15:04;5.73;;;3.80;;
4726;SDS011;2377;51.734;8.950;2023-06-26T14:17:32;4.90;;;2.80;;
4726;SDS011;2377;51.734;8.950;2023-06-26T14:20:00;5.00;;;3.93;;
4726;SDS011;2377;51.734;8.950;2023-06-26T14:22:30;5.33;;;3.10;;
4726;SDS011;2377;51.734;8.950;2023-06-26T14:24:58;4.90;;;3.60;;
4726;SDS011;2377;51.734;8.950;2023-06-26T14:27:26;4.30;;;3.60;;
4726;SDS011;2377;51.734;8.950;2023-06-26T14:29:53;7.10;;;4.03;;
4726;SDS011;2377;51.734;8.950;2023-06-26T14:32:20;4.90;;;3.83;;
4726;SDS011;2377;51.734;8.950;2023-06-26T14:34:47;6.33;;;3.70;;
4726;SDS011;2377;51.734;8.950;2023-06-26T14:37:14;5.30;;;3.90;;
4726;SDS011;2377;51.734;8.950;2023-06-26T14:39:46;6.13;;;3.60;;
4726;SDS011;2377;51.734;8.950;2023-06-26T14:42:13;7.43;;;3.80;;
4726;SDS011;2377;51.734;8.950;2023-06-26T14:44:42;6.63;;;3.77;;
4726;SDS011;2377;51.734;8.950;2023-06-26T14:47:11;5.33;;;4.00;;
4726;SDS011;2377;51.734;8.950;2023-06-26T14:49:39;4.80;;;3.50;;
4726;SDS011;2377;51.734;8.950;2023-06-26T14:52:06;6.17;;;3.03;;
4726;SDS011;2377;51.734;8.950;2023-06-26T14:54:34;6.40;;;3.13;;
4726;SDS011;2377;51.734;8.950;2023-06-26T14:57:01;2.97;;;2.53;;
4726;SDS011;2377;51.734;8.950;2023-06-26T14:59:29;3.67;;;3.20;;
4726;SDS011;2377;51.734;8.950;2023-06-26T15:01:57;4.27;;;2.87;;
4726;SDS011;2377;51.734;8.950;2023-06-26T15:04:24;4.40;;;3.37;;
4726;SDS011;2377;51.734;8.950;2023-06-26T15:06:51;3.60;;;2.90;;
4726;SDS011;2377;51.734;8.950;2023-06-26T15:09:19;3.50;;;2.30;;
4726;SDS011;2377;51.734;8.950;2023-06-26T15:11:46;4.03;;;2.57;;
4726;SDS011;2377;51.734;8.950;2023-06-26T15:14:13;3.87;;;2.47;;
4726;SDS011;2377;51.734;8.950;2023-06-26T15:16:40;4.10;;;2.77;;
4726;SDS011;2377;51.734;8.950;2023-06-26T15:19:09;4.10;;;2.60;;
4726;SDS011;2377;51.734;8.950;2023-06-26T15:21:36;3.60;;;2.40;;
4726;SDS011;2377;51.734;8.950;2023-06-26T15:24:03;4.53;;;2.17;;
4726;SDS011;2377;51.734;8.950;2023-06-26T15:26:31;6.53;;;2.53;;